createdAt,value
2018-07-30T00:00:58.008Z,22.37
2018-07-30T00:01:58.005Z,22.41
2018-07-30T00:02:57.994Z,22.32
2018-07-30T00:03:57.986Z,22.44
2018-07-30T00:04:57.981Z,22.37
2018-07-30T00:05:57.970Z,22.46
2018-07-30T00:06:57.964Z,22.38
2018-07-30T00:07:57.954Z,22.39
2018-07-30T00:08:57.957Z,22.41
2018-07-30T00:09:57.948Z,22.38
2018-07-30T00:10:57.941Z,22.39
2018-07-30T00:11:57.937Z,22.43
2018-07-30T00:12:57.920Z,22.50
2018-07-30T00:13:57.589Z,22.43
2018-07-30T00:14:57.922Z,22.50
2018-07-30T00:15:57.911Z,22.44
2018-07-30T00:16:57.902Z,22.50
2018-07-30T00:18:10.628Z,22.46
2018-07-30T00:18:57.880Z,22.52
2018-07-30T00:19:57.876Z,22.50
2018-07-30T00:20:57.875Z,22.59
2018-07-30T00:21:57.868Z,22.53
2018-07-30T00:22:57.864Z,22.57
2018-07-30T00:23:57.853Z,22.53
2018-07-30T00:24:57.851Z,22.60
2018-07-30T00:25:57.836Z,22.60
2018-07-30T00:26:57.837Z,22.56
2018-07-30T00:27:57.828Z,22.62
2018-07-30T00:28:57.823Z,22.53
2018-07-30T00:29:57.811Z,22.57
2018-07-30T00:30:57.812Z,22.56
2018-07-30T00:31:57.807Z,22.57
2018-07-30T00:32:57.798Z,22.62
2018-07-30T00:33:57.799Z,22.65
2018-07-30T00:34:57.776Z,22.62
2018-07-30T00:35:57.428Z,22.62
2018-07-30T00:36:57.770Z,22.60
2018-07-30T00:37:57.762Z,22.65
2018-07-30T00:38:57.755Z,22.65
2018-07-30T00:39:57.423Z,22.69
2018-07-30T00:40:57.746Z,22.68
2018-07-30T00:41:57.405Z,22.69
2018-07-30T00:42:57.418Z,22.65
2018-07-30T00:43:57.725Z,22.64
2018-07-30T00:44:57.718Z,22.62
2018-07-30T00:45:57.368Z,22.60
2018-07-30T00:46:57.704Z,22.64
2018-07-30T00:47:57.349Z,22.60
2018-07-30T00:48:57.363Z,22.57
2018-07-30T00:49:57.685Z,22.57
2018-07-30T00:50:57.336Z,22.59
2018-07-30T00:51:57.670Z,22.56
2018-07-30T00:52:57.667Z,22.57
2018-07-30T00:53:57.302Z,22.68
2018-07-30T00:54:57.688Z,22.56
2018-07-30T00:55:57.649Z,22.57
2018-07-30T00:56:57.762Z,22.57
2018-07-30T00:57:57.631Z,22.62
2018-07-30T00:58:57.292Z,22.62
2018-07-30T00:59:57.619Z,22.60
2018-07-30T01:00:57.267Z,22.64
2018-07-30T01:01:57.608Z,22.53
2018-07-30T01:02:57.590Z,22.65
2018-07-30T01:03:57.264Z,22.60
2018-07-30T01:04:57.583Z,22.60
2018-07-30T01:05:57.592Z,22.62
2018-07-30T01:06:57.229Z,22.57
2018-07-30T01:07:57.568Z,22.60
2018-07-30T01:08:57.215Z,22.62
2018-07-30T01:09:57.206Z,22.60
2018-07-30T01:10:57.544Z,22.60
2018-07-30T01:11:57.183Z,22.57
2018-07-30T01:12:57.178Z,22.64
2018-07-30T01:13:57.170Z,22.62
2018-07-30T01:14:57.514Z,22.56
2018-07-30T01:15:57.512Z,22.56
2018-07-30T01:16:57.509Z,22.60
2018-07-30T01:17:57.169Z,22.60
2018-07-30T01:18:57.499Z,22.69
2018-07-30T01:19:57.486Z,22.68
2018-07-30T01:20:57.480Z,22.67
2018-07-30T01:21:57.128Z,22.64
2018-07-30T01:22:57.468Z,22.69
2018-07-30T01:23:57.123Z,22.69
2018-07-30T01:24:57.115Z,22.71
2018-07-30T01:25:57.105Z,22.72
2018-07-30T01:26:57.134Z,22.68
2018-07-30T01:27:57.435Z,22.74
2018-07-30T01:28:57.081Z,22.65
2018-07-30T01:29:57.421Z,22.75
2018-07-30T01:30:57.415Z,22.80
2018-07-30T01:31:57.059Z,22.77
2018-07-30T01:32:57.075Z,22.77
2018-07-30T01:33:57.393Z,22.78
2018-07-30T01:34:57.388Z,22.75
2018-07-30T01:35:57.028Z,22.78
2018-07-30T01:36:57.383Z,22.77
2018-07-30T01:37:57.370Z,22.69
2018-07-30T01:38:57.031Z,22.80
2018-07-30T01:39:57.353Z,22.80
2018-07-30T01:40:57.349Z,22.77
2018-07-30T01:41:57.344Z,22.72
2018-07-30T01:42:56.982Z,22.78
2018-07-30T01:43:57.328Z,22.78
2018-07-30T01:44:56.968Z,22.77
2018-07-30T01:47:32.118Z,22.74
2018-07-30T01:49:51.921Z,22.77
2018-07-30T01:50:51.895Z,22.72
2018-07-30T01:52:45.820Z,22.71
2018-07-30T01:55:27.513Z,22.74
2018-07-30T01:56:27.101Z,22.72
2018-07-30T01:58:21.036Z,22.77
2018-07-30T01:59:20.786Z,22.78
2018-07-30T02:01:14.141Z,22.75
2018-07-30T02:02:14.147Z,22.82
2018-07-30T02:04:07.619Z,22.69
2018-07-30T02:05:07.475Z,22.84
2018-07-30T02:07:24.589Z,22.83
2018-07-30T02:08:00.462Z,22.77
2018-07-30T02:10:53.126Z,22.77
2018-07-30T02:11:16.340Z,22.78
2018-07-30T02:13:10.019Z,22.86
2018-07-30T02:14:10.011Z,22.80
2018-07-30T02:16:03.573Z,22.82
2018-07-30T02:17:03.357Z,22.90
2018-07-30T02:18:56.353Z,22.96
2018-07-30T02:19:56.345Z,22.90
2018-07-30T02:21:50.269Z,22.96
2018-07-30T02:22:50.036Z,22.87
2018-07-30T02:24:43.041Z,22.99
2018-07-30T02:25:43.370Z,22.94
2018-07-30T02:27:36.952Z,22.99
2018-07-30T02:28:36.376Z,23.01
2018-07-30T02:30:30.076Z,22.99
2018-07-30T02:31:30.061Z,23.02
2018-07-30T02:33:23.859Z,22.96
2018-07-30T02:34:23.411Z,22.97
2018-07-30T02:36:16.758Z,23.02
2018-07-30T02:37:16.405Z,22.93
2018-07-30T02:39:10.271Z,22.99
2018-07-30T02:40:10.085Z,22.99
2018-07-30T02:42:03.110Z,23.01
2018-07-30T02:43:03.431Z,22.96
2018-07-30T02:44:57.004Z,23.02
2018-07-30T02:45:56.422Z,23.02
2018-07-30T02:47:49.885Z,23.01
2018-07-30T02:48:50.116Z,23.04
2018-07-30T02:50:43.679Z,22.97
2018-07-30T02:51:43.457Z,22.96
2018-07-30T02:53:36.481Z,22.99
2018-07-30T02:54:36.800Z,22.94
2018-07-30T02:56:30.049Z,22.94
2018-07-30T02:57:29.819Z,22.93
2018-07-30T02:59:23.494Z,22.94
2018-07-30T03:00:23.159Z,22.87
2018-07-30T03:02:17.291Z,22.97
2018-07-30T03:03:16.493Z,22.92
2018-07-30T03:05:10.422Z,22.87
2018-07-30T03:06:09.835Z,22.87
2018-07-30T03:08:03.386Z,22.92
2018-07-30T03:09:03.509Z,22.86
2018-07-30T03:10:56.859Z,22.92
2018-07-30T03:11:56.851Z,22.90
2018-07-30T03:13:50.677Z,22.94
2018-07-30T03:14:50.197Z,22.90
2018-07-30T03:16:44.134Z,22.90
2018-07-30T03:17:43.538Z,22.82
2018-07-30T03:19:37.068Z,22.94
2018-07-30T03:20:36.871Z,22.87
2018-07-30T03:22:30.244Z,22.90
2018-07-30T03:23:29.857Z,22.93
2018-07-30T03:25:23.467Z,22.93
2018-07-30T03:26:23.233Z,22.90
2018-07-30T03:28:16.575Z,22.90
2018-07-30T03:29:16.541Z,22.86
2018-07-30T03:31:10.444Z,22.96
2018-07-30T03:32:10.248Z,22.99
2018-07-30T03:34:03.597Z,22.92
2018-07-30T03:35:03.251Z,22.90
2018-07-30T03:36:57.751Z,22.94
2018-07-30T03:37:56.928Z,22.92
2018-07-30T03:39:50.289Z,23.01
2018-07-30T03:40:49.941Z,23.01
2018-07-30T03:42:43.827Z,22.99
2018-07-30T03:43:43.619Z,22.96
2018-07-30T03:45:36.977Z,23.02
2018-07-30T03:46:36.967Z,23.04
2018-07-30T03:48:30.487Z,22.96
2018-07-30T03:49:29.954Z,23.02
2018-07-30T03:51:24.249Z,23.05
2018-07-30T03:52:23.644Z,22.99
2018-07-30T03:54:17.812Z,22.97
2018-07-30T03:55:16.669Z,22.99
2018-07-30T03:57:10.332Z,22.99
2018-07-30T03:58:10.324Z,23.02
2018-07-30T04:00:03.903Z,22.90
2018-07-30T04:01:03.322Z,23.02
2018-07-30T04:02:56.700Z,23.02
2018-07-30T04:03:56.691Z,23.02
2018-07-30T04:05:50.610Z,22.94
2018-07-30T04:06:50.342Z,23.02
2018-07-30T04:08:43.366Z,22.96
2018-07-30T04:09:43.338Z,22.97
2018-07-30T04:11:37.269Z,23.01
2018-07-30T04:12:37.052Z,22.93
2018-07-30T04:14:30.033Z,22.90
2018-07-30T04:15:30.029Z,22.97
2018-07-30T04:17:23.693Z,22.92
2018-07-30T04:18:23.368Z,22.96
2018-07-30T04:20:17.073Z,22.97
2018-07-30T04:21:17.064Z,22.97
2018-07-30T04:23:10.316Z,22.96
2018-07-30T04:24:10.404Z,22.96
2018-07-30T04:26:03.397Z,22.90
2018-07-30T04:27:03.745Z,22.86
2018-07-30T04:28:57.318Z,22.93
2018-07-30T04:29:57.089Z,22.90
2018-07-30T04:31:50.102Z,22.86
2018-07-30T04:32:50.096Z,22.99
2018-07-30T04:34:43.642Z,22.87
2018-07-30T04:35:43.774Z,22.90
2018-07-30T04:37:36.770Z,22.86
2018-07-30T04:38:37.113Z,22.92
2018-07-30T04:40:30.684Z,22.87
2018-07-30T04:41:30.106Z,22.86
2018-07-30T04:43:23.811Z,22.94
2018-07-30T04:44:23.797Z,22.82
2018-07-30T04:46:17.038Z,22.94
2018-07-30T04:47:17.178Z,22.93
2018-07-30T04:49:10.159Z,23.02
2018-07-30T04:50:10.491Z,22.97
2018-07-30T04:52:04.060Z,23.02
2018-07-30T04:53:03.480Z,23.01
2018-07-30T04:54:57.178Z,22.96
2018-07-30T04:55:56.833Z,22.93
2018-07-30T04:57:50.756Z,22.99
2018-07-30T04:58:50.517Z,23.11
2018-07-30T05:00:43.866Z,23.07
2018-07-30T05:01:43.515Z,23.11
2018-07-30T05:03:37.436Z,23.09
2018-07-30T05:04:36.855Z,23.08
2018-07-30T05:06:30.550Z,23.05
2018-07-30T05:07:30.545Z,23.12
2018-07-30T05:09:23.779Z,23.08
2018-07-30T05:10:23.537Z,23.09
2018-07-30T05:12:17.230Z,23.09
2018-07-30T05:13:17.224Z,23.09
2018-07-30T05:15:10.751Z,23.14
2018-07-30T05:16:10.216Z,23.11
2018-07-30T05:18:03.910Z,23.24
2018-07-30T05:19:03.574Z,23.17
2018-07-30T05:20:57.472Z,23.17
2018-07-30T05:21:56.914Z,23.23
2018-07-30T05:23:51.199Z,23.19
2018-07-30T05:24:50.271Z,23.24
2018-07-30T05:26:44.177Z,23.20
2018-07-30T05:27:43.939Z,23.20
2018-07-30T05:29:37.536Z,23.26
2018-07-30T05:30:37.277Z,23.31
2018-07-30T05:31:37.323Z,23.26
2018-07-30T05:32:36.916Z,23.32
2018-07-30T05:33:36.907Z,23.31
2018-07-30T05:34:37.250Z,23.24
2018-07-30T05:35:37.243Z,23.38
2018-07-30T05:36:36.930Z,23.39
2018-07-30T05:37:37.235Z,23.40
2018-07-30T05:38:36.877Z,23.49
2018-07-30T05:39:36.872Z,23.45
2018-07-30T05:40:37.210Z,23.43
2018-07-30T05:41:36.875Z,23.47
2018-07-30T05:42:37.200Z,23.49
2018-07-30T05:43:36.836Z,23.43
2018-07-30T05:44:37.183Z,23.46
2018-07-30T05:45:36.864Z,23.47
2018-07-30T05:46:36.819Z,23.46
2018-07-30T05:47:37.172Z,23.47
2018-07-30T05:48:36.821Z,23.45
2018-07-30T05:49:36.803Z,23.43
2018-07-30T05:50:36.809Z,23.43
2018-07-30T05:51:37.138Z,23.42
2018-07-30T05:52:37.140Z,23.47
2018-07-30T05:53:37.131Z,23.49
2018-07-30T05:54:36.782Z,23.52
2018-07-30T05:55:36.788Z,23.50
2018-07-30T05:56:36.823Z,23.53
2018-07-30T05:57:37.106Z,23.60
2018-07-30T05:58:36.746Z,23.53
2018-07-30T05:59:37.179Z,23.49
2018-07-30T06:00:37.099Z,23.65
2018-07-30T06:01:37.083Z,23.57
2018-07-30T06:02:36.722Z,23.64
2018-07-30T06:03:37.072Z,23.62
2018-07-30T06:04:36.708Z,23.64
2018-07-30T06:05:36.698Z,23.55
2018-07-30T06:06:36.719Z,23.61
2018-07-30T06:07:36.711Z,23.61
2018-07-30T06:08:37.037Z,23.60
2018-07-30T06:09:37.049Z,23.61
2018-07-30T06:10:36.718Z,23.60
2018-07-30T06:11:37.012Z,23.53
2018-07-30T06:12:36.993Z,23.53
2018-07-30T06:13:36.989Z,23.57
2018-07-30T06:14:37.005Z,23.49
2018-07-30T06:15:36.685Z,23.42
2018-07-30T06:16:36.981Z,23.40
2018-07-30T06:17:36.639Z,23.47
2018-07-30T06:18:36.622Z,23.42
2018-07-30T06:19:36.969Z,23.35
2018-07-30T06:20:36.626Z,23.43
2018-07-30T06:21:36.646Z,23.31
2018-07-30T06:22:36.619Z,23.32
2018-07-30T06:23:36.947Z,23.38
2018-07-30T06:24:36.939Z,23.31
2018-07-30T06:25:36.614Z,23.31
2018-07-30T06:26:36.928Z,23.26
2018-07-30T06:27:36.571Z,23.29
2018-07-30T06:28:36.921Z,23.26
2018-07-30T06:29:36.892Z,23.29
2018-07-30T06:30:36.559Z,23.26
2018-07-30T06:31:36.879Z,23.20
2018-07-30T06:32:36.890Z,23.19
2018-07-30T06:33:36.524Z,23.17
2018-07-30T06:34:36.877Z,23.23
2018-07-30T06:35:36.532Z,23.20
2018-07-30T06:36:36.517Z,23.22
2018-07-30T06:37:36.523Z,23.23
2018-07-30T06:38:36.835Z,23.22
2018-07-30T06:39:36.854Z,23.15
2018-07-30T06:40:36.506Z,23.14
2018-07-30T06:41:36.502Z,23.12
2018-07-30T06:42:36.468Z,23.19
2018-07-30T06:43:36.478Z,23.07
2018-07-30T06:44:36.528Z,23.08
2018-07-30T06:45:36.465Z,23.02
2018-07-30T06:46:36.467Z,23.07
2018-07-30T06:47:36.465Z,23.04
2018-07-30T06:48:36.771Z,23.04
2018-07-30T06:49:36.438Z,23.11
2018-07-30T06:50:36.777Z,23.05
2018-07-30T06:51:36.439Z,23.14
2018-07-30T06:52:36.436Z,23.08
2018-07-30T06:53:36.740Z,23.07
2018-07-30T06:54:36.421Z,23.07
2018-07-30T06:55:36.730Z,23.09
2018-07-30T06:56:36.720Z,23.08
2018-07-30T06:57:36.733Z,23.08
2018-07-30T06:58:36.378Z,23.05
2018-07-30T06:59:36.725Z,23.07
2018-07-30T07:00:36.384Z,23.09
2018-07-30T07:01:36.683Z,23.08
2018-07-30T07:02:36.334Z,23.04
2018-07-30T07:03:36.349Z,23.07
2018-07-30T07:04:36.370Z,23.08
2018-07-30T07:05:36.340Z,23.11
2018-07-30T07:06:36.657Z,23.09
2018-07-30T07:07:36.309Z,23.08
2018-07-30T07:08:36.325Z,23.14
2018-07-30T07:09:36.318Z,23.09
2018-07-30T07:10:36.320Z,23.12
2018-07-30T07:11:36.303Z,23.05
2018-07-30T07:12:36.620Z,23.01
2018-07-30T07:13:36.618Z,23.09
2018-07-30T07:14:36.276Z,23.07
2018-07-30T07:15:36.622Z,22.99
2018-07-30T07:16:36.693Z,23.07
2018-07-30T07:17:36.604Z,23.01
2018-07-30T07:18:36.258Z,23.04
2018-07-30T07:19:36.255Z,22.94
2018-07-30T07:20:36.263Z,22.94
2018-07-30T07:21:36.569Z,23.02
2018-07-30T07:22:36.559Z,23.02
2018-07-30T07:23:36.566Z,23.01
2018-07-30T07:24:36.233Z,22.99
2018-07-30T07:25:36.559Z,23.04
2018-07-30T07:26:36.207Z,23.01
2018-07-30T07:27:36.201Z,22.96
2018-07-30T07:28:36.194Z,22.99
2018-07-30T07:29:36.176Z,23.04
2018-07-30T07:30:37.415Z,22.96
2018-07-30T07:31:36.525Z,22.97
2018-07-30T07:32:36.169Z,22.99
2018-07-30T07:33:36.491Z,22.99
2018-07-30T07:34:36.143Z,23.05
2018-07-30T07:35:36.499Z,22.93
2018-07-30T07:36:36.158Z,22.96
2018-07-30T07:37:36.481Z,22.93
2018-07-30T07:38:36.148Z,23.02
2018-07-30T07:39:36.123Z,23.01
2018-07-30T07:40:36.466Z,22.93
2018-07-30T07:41:36.444Z,22.96
2018-07-30T07:42:36.450Z,22.97
2018-07-30T07:43:36.444Z,23.02
2018-07-30T07:44:36.437Z,22.99
2018-07-30T07:45:36.103Z,22.99
2018-07-30T07:46:36.083Z,23.02
2018-07-30T07:47:36.424Z,23.08
2018-07-30T07:48:36.084Z,22.99
2018-07-30T07:49:36.084Z,22.96
2018-07-30T07:50:36.166Z,22.96
2018-07-30T07:51:36.076Z,23.15
2018-07-30T07:52:36.031Z,23.15
2018-07-30T07:53:36.402Z,23.09
2018-07-30T07:54:36.374Z,23.05
2018-07-30T07:55:36.357Z,23.11
2018-07-30T07:56:36.342Z,23.11
2018-07-30T07:57:36.024Z,23.05
2018-07-30T07:58:36.019Z,23.07
2018-07-30T07:59:36.342Z,23.12
2018-07-30T08:00:36.004Z,23.12
2018-07-30T08:01:35.999Z,23.14
2018-07-30T08:02:35.984Z,23.14
2018-07-30T08:03:36.319Z,23.17
2018-07-30T08:04:36.311Z,23.20
2018-07-30T08:05:35.962Z,23.17
2018-07-30T08:06:35.966Z,23.17
2018-07-30T08:07:36.277Z,23.22
2018-07-30T08:08:35.953Z,23.19
2018-07-30T08:09:36.307Z,23.11
2018-07-30T08:10:35.935Z,23.23
2018-07-30T08:11:35.937Z,23.19
2018-07-30T08:12:36.260Z,23.17
2018-07-30T08:13:35.926Z,23.23
2018-07-30T08:14:36.272Z,23.26
2018-07-30T08:15:35.895Z,23.19
2018-07-30T08:16:35.882Z,23.19
2018-07-30T08:17:36.234Z,23.17
2018-07-30T08:18:36.230Z,23.17
2018-07-30T08:19:36.214Z,23.15
2018-07-30T08:20:35.874Z,23.17
2018-07-30T08:21:36.204Z,23.15
2018-07-30T08:22:35.840Z,23.19
2018-07-30T08:23:35.856Z,23.22
2018-07-30T08:24:36.169Z,23.20
2018-07-30T08:25:35.827Z,23.20
2018-07-30T08:26:35.824Z,23.19
2018-07-30T08:27:35.812Z,23.19
2018-07-30T08:28:36.140Z,23.20
2018-07-30T08:29:36.149Z,23.17
2018-07-30T08:30:36.131Z,23.17
2018-07-30T08:31:35.788Z,23.20
2018-07-30T08:32:35.802Z,23.15
2018-07-30T08:33:36.132Z,23.23
2018-07-30T08:34:35.777Z,23.15
2018-07-30T08:35:35.775Z,23.20
2018-07-30T08:36:35.776Z,23.22
2018-07-30T08:37:36.087Z,23.26
2018-07-30T08:38:36.079Z,23.20
2018-07-30T08:39:35.735Z,23.22
2018-07-30T08:40:36.084Z,23.22
2018-07-30T08:41:35.741Z,23.22
2018-07-30T08:42:36.065Z,23.23
2018-07-30T08:43:36.066Z,23.19
2018-07-30T08:44:36.045Z,23.22
2018-07-30T08:45:36.059Z,23.27
2018-07-30T08:46:36.031Z,23.26
2018-07-30T08:47:36.047Z,23.20
2018-07-30T08:48:36.021Z,23.20
2018-07-30T08:49:36.022Z,23.22
2018-07-30T08:50:36.024Z,23.20
2018-07-30T08:51:35.653Z,23.19
2018-07-30T08:52:35.674Z,23.20
2018-07-30T08:53:36.012Z,23.23
2018-07-30T08:54:35.999Z,23.20
2018-07-30T08:55:35.643Z,23.23
2018-07-30T08:56:35.968Z,23.20
2018-07-30T08:57:35.962Z,23.20
2018-07-30T08:58:35.965Z,23.20
2018-07-30T08:59:35.952Z,23.22
2018-07-30T09:00:35.619Z,23.26
2018-07-30T09:01:35.619Z,23.19
2018-07-30T09:02:35.590Z,23.23
2018-07-30T09:03:35.944Z,23.19
2018-07-30T09:04:35.918Z,23.22
2018-07-30T09:05:35.574Z,23.19
2018-07-30T09:06:35.590Z,23.23
2018-07-30T09:07:35.899Z,23.20
2018-07-30T09:08:35.910Z,23.23
2018-07-30T09:09:35.906Z,23.19
2018-07-30T09:10:35.556Z,23.23
2018-07-30T09:11:35.894Z,23.20
2018-07-30T09:12:35.896Z,23.24
2018-07-30T09:13:35.882Z,23.24
2018-07-30T09:14:35.858Z,23.24
2018-07-30T09:15:35.535Z,23.20
2018-07-30T09:16:35.522Z,23.17
2018-07-30T09:17:35.839Z,23.17
2018-07-30T09:18:35.839Z,23.26
2018-07-30T09:19:35.824Z,23.22
2018-07-30T09:20:35.815Z,23.17
2018-07-30T09:21:35.809Z,23.17
2018-07-30T09:22:35.463Z,23.22
2018-07-30T09:23:35.452Z,23.22
2018-07-30T09:24:35.476Z,23.22
2018-07-30T09:25:35.806Z,23.15
2018-07-30T09:26:35.790Z,23.22
2018-07-30T09:27:35.445Z,23.19
2018-07-30T09:28:35.459Z,23.22
2018-07-30T09:29:35.754Z,23.17
2018-07-30T09:30:35.439Z,23.23
2018-07-30T09:31:35.430Z,23.17
2018-07-30T09:32:35.811Z,23.26
2018-07-30T09:33:35.755Z,23.17
2018-07-30T09:34:35.415Z,23.22
2018-07-30T09:35:35.732Z,23.22
2018-07-30T09:36:35.403Z,23.14
2018-07-30T09:37:35.728Z,23.19
2018-07-30T09:38:35.709Z,23.11
2018-07-30T09:39:35.766Z,23.15
2018-07-30T09:40:35.693Z,23.09
2018-07-30T09:41:35.705Z,23.11
2018-07-30T09:42:35.705Z,23.17
2018-07-30T09:43:35.674Z,23.15
2018-07-30T09:44:35.713Z,23.14
2018-07-30T09:45:35.683Z,23.11
2018-07-30T09:46:35.339Z,23.08
2018-07-30T09:47:35.324Z,23.08
2018-07-30T09:48:35.647Z,23.15
2018-07-30T09:49:35.308Z,23.11
2018-07-30T09:50:35.345Z,23.01
2018-07-30T09:51:35.624Z,23.15
2018-07-30T09:52:35.281Z,23.14
2018-07-30T09:53:35.275Z,23.15
2018-07-30T09:54:35.596Z,23.04
2018-07-30T09:55:35.619Z,23.12
2018-07-30T09:56:35.277Z,23.09
2018-07-30T09:57:35.604Z,23.09
2018-07-30T09:58:35.248Z,23.09
2018-07-30T09:59:35.248Z,23.08
2018-07-30T10:00:35.568Z,23.04
2018-07-30T10:01:35.561Z,23.12
2018-07-30T10:02:35.231Z,22.97
2018-07-30T10:03:35.566Z,22.99
2018-07-30T10:04:35.542Z,22.99
2018-07-30T10:05:35.216Z,23.01
2018-07-30T10:06:35.549Z,23.01
2018-07-30T10:07:35.629Z,22.96
2018-07-30T10:08:35.197Z,23.01
2018-07-30T10:09:35.511Z,22.92
2018-07-30T10:10:35.523Z,23.01
2018-07-30T10:11:35.515Z,22.97
2018-07-30T10:12:35.153Z,22.97
2018-07-30T10:13:35.496Z,22.97
2018-07-30T10:14:35.476Z,22.99
2018-07-30T10:15:35.162Z,23.02
2018-07-30T10:16:35.468Z,23.05
2018-07-30T10:17:35.134Z,23.02
2018-07-30T10:18:35.472Z,23.01
2018-07-30T10:19:35.450Z,23.02
2018-07-30T10:21:02.695Z,22.96
2018-07-30T10:21:35.455Z,23.01
2018-07-30T10:22:35.113Z,22.96
2018-07-30T10:23:35.458Z,22.97
2018-07-30T10:24:35.102Z,23.02
2018-07-30T10:25:35.426Z,23.02
2018-07-30T10:26:35.089Z,23.02
2018-07-30T10:27:35.421Z,23.02
2018-07-30T10:28:35.073Z,22.99
2018-07-30T10:29:35.384Z,22.94
2018-07-30T10:30:35.077Z,23.02
2018-07-30T10:31:35.364Z,22.99
2018-07-30T10:32:35.042Z,22.99
2018-07-30T10:33:35.032Z,22.94
2018-07-30T10:34:35.425Z,22.93
2018-07-30T10:35:35.023Z,22.94
2018-07-30T10:36:35.362Z,22.94
2018-07-30T10:37:35.352Z,22.96
2018-07-30T10:38:35.021Z,22.92
2018-07-30T10:39:34.984Z,23.02
2018-07-30T10:40:34.986Z,23.01
2018-07-30T10:41:35.310Z,22.94
2018-07-30T10:42:34.976Z,22.97
2018-07-30T10:43:34.988Z,22.94
2018-07-30T10:44:35.311Z,22.94
2018-07-30T10:45:34.948Z,22.97
2018-07-30T10:46:35.287Z,22.99
2018-07-30T10:47:34.935Z,22.94
2018-07-30T10:48:35.268Z,22.93
2018-07-30T10:49:35.259Z,22.92
2018-07-30T10:50:34.924Z,22.93
2018-07-30T10:51:35.266Z,22.96
2018-07-30T10:52:35.259Z,22.96
2018-07-30T10:53:35.232Z,22.97
2018-07-30T10:54:35.234Z,22.97
2018-07-30T10:55:35.223Z,22.87
2018-07-30T10:56:35.238Z,22.94
2018-07-30T10:57:34.871Z,22.90
2018-07-30T10:58:35.209Z,22.90
2018-07-30T10:59:34.878Z,22.92
2018-07-30T11:00:34.843Z,22.96
2018-07-30T11:01:34.848Z,22.86
2018-07-30T11:02:34.852Z,22.87
2018-07-30T11:03:35.188Z,22.94
2018-07-30T11:04:34.831Z,22.90
2018-07-30T11:05:34.822Z,22.90
2018-07-30T11:06:35.169Z,22.89
2018-07-30T11:07:34.824Z,22.90
2018-07-30T11:08:35.137Z,22.90
2018-07-30T11:09:35.181Z,22.83
2018-07-30T11:10:35.135Z,22.90
2018-07-30T11:11:35.119Z,22.87
2018-07-30T11:12:34.807Z,22.90
2018-07-30T11:13:34.759Z,22.92
2018-07-30T11:14:35.124Z,22.84
2018-07-30T11:15:35.112Z,22.90
2018-07-30T11:16:35.104Z,22.80
2018-07-30T11:17:35.079Z,22.80
2018-07-30T11:18:34.727Z,22.77
2018-07-30T11:19:34.749Z,22.86
2018-07-30T11:20:35.063Z,22.80
2018-07-30T11:21:35.075Z,22.83
2018-07-30T11:22:35.069Z,22.83
2018-07-30T11:23:35.035Z,22.80
2018-07-30T11:24:35.033Z,22.80
2018-07-30T11:25:35.033Z,22.77
2018-07-30T11:26:35.029Z,22.87
2018-07-30T11:27:35.039Z,22.78
2018-07-30T11:28:34.693Z,22.78
2018-07-30T11:29:34.680Z,22.77
2018-07-30T11:30:34.997Z,22.78
2018-07-30T11:31:34.674Z,22.82
2018-07-30T11:32:35.001Z,22.87
2018-07-30T11:33:34.987Z,22.83
2018-07-30T11:34:34.633Z,22.84
2018-07-30T11:35:34.976Z,22.82
2018-07-30T11:36:34.666Z,22.78
2018-07-30T11:37:34.952Z,22.86
2018-07-30T11:38:34.939Z,22.78
2018-07-30T11:39:34.624Z,22.86
2018-07-30T11:40:34.932Z,22.83
2018-07-30T11:41:34.602Z,22.87
2018-07-30T11:42:34.920Z,22.78
2018-07-30T11:43:34.621Z,22.82
2018-07-30T11:44:34.912Z,22.82
2018-07-30T11:45:34.595Z,22.80
2018-07-30T11:46:34.567Z,22.78
2018-07-30T11:47:34.888Z,22.82
2018-07-30T11:48:34.569Z,22.82
2018-07-30T11:49:34.541Z,22.82
2018-07-30T11:50:34.872Z,22.80
2018-07-30T11:51:34.865Z,22.86
2018-07-30T11:52:34.528Z,22.82
2018-07-30T11:53:34.866Z,22.83
2018-07-30T11:54:34.865Z,22.78
2018-07-30T11:55:34.859Z,22.82
2018-07-30T11:56:34.849Z,22.74
2018-07-30T11:57:34.510Z,22.78
2018-07-30T11:58:34.490Z,22.80
2018-07-30T11:59:34.505Z,22.75
2018-07-30T12:00:34.807Z,22.74
2018-07-30T12:01:34.452Z,22.74
2018-07-30T12:02:34.480Z,22.80
2018-07-30T12:03:34.809Z,22.74
2018-07-30T12:04:34.797Z,22.80
2018-07-30T12:05:34.773Z,22.75
2018-07-30T12:06:34.454Z,22.77
2018-07-30T12:07:34.445Z,22.80
2018-07-30T12:08:34.436Z,22.71
2018-07-30T12:09:34.750Z,22.74
2018-07-30T12:10:34.763Z,22.80
2018-07-30T12:11:34.756Z,22.75
2018-07-30T12:12:34.415Z,22.82
2018-07-30T12:13:34.762Z,22.72
2018-07-30T12:14:34.721Z,22.80
2018-07-30T12:15:34.709Z,22.72
2018-07-30T12:16:34.713Z,22.77
2018-07-30T12:17:34.363Z,22.78
2018-07-30T12:18:34.709Z,22.72
2018-07-30T12:19:34.682Z,22.72
2018-07-30T12:20:34.351Z,22.72
2018-07-30T12:21:34.339Z,22.74
2018-07-30T12:22:34.353Z,22.72
2018-07-30T12:23:34.658Z,22.72
2018-07-30T12:24:34.316Z,22.74
2018-07-30T12:25:34.330Z,22.78
2018-07-30T12:26:34.640Z,22.74
2018-07-30T12:27:34.652Z,22.69
2018-07-30T12:28:34.644Z,22.80
2018-07-30T12:29:34.636Z,22.72
2018-07-30T12:30:34.311Z,22.71
2018-07-30T12:31:34.277Z,22.72
2018-07-30T12:32:34.274Z,22.77
2018-07-30T12:33:34.281Z,22.83
2018-07-30T12:34:34.262Z,22.71
2018-07-30T12:35:34.590Z,22.78
2018-07-30T12:36:34.615Z,22.77
2018-07-30T12:37:34.589Z,22.72
2018-07-30T12:38:34.251Z,22.75
2018-07-30T12:39:34.234Z,22.80
2018-07-30T12:40:34.231Z,22.78
2018-07-30T12:41:34.573Z,22.74
2018-07-30T12:42:34.225Z,22.67
2018-07-30T12:43:34.530Z,22.69
2018-07-30T12:44:34.197Z,22.74
2018-07-30T12:45:34.202Z,22.68
2018-07-30T12:46:34.166Z,22.71
2018-07-30T12:47:34.185Z,22.69
2018-07-30T12:48:34.181Z,22.67
2018-07-30T12:49:34.483Z,22.72
2018-07-30T12:50:34.254Z,22.75
2018-07-30T12:51:34.164Z,22.77
2018-07-30T12:52:34.147Z,22.77
2018-07-30T12:53:34.155Z,22.75
2018-07-30T12:54:34.125Z,22.75
2018-07-30T12:55:34.477Z,22.62
2018-07-30T12:56:34.128Z,22.74
2018-07-30T12:57:34.459Z,22.69
2018-07-30T12:58:34.121Z,22.74
2018-07-30T12:59:34.445Z,22.75
2018-07-30T13:00:34.101Z,22.74
2018-07-30T13:01:34.432Z,22.64
2018-07-30T13:02:34.408Z,22.62
2018-07-30T13:03:34.418Z,22.74
2018-07-30T13:04:34.411Z,22.80
2018-07-30T13:05:34.081Z,22.62
2018-07-30T13:06:34.065Z,22.65
2018-07-30T13:07:34.400Z,22.69
2018-07-30T13:08:34.031Z,22.67
2018-07-30T13:09:34.381Z,22.69
2018-07-30T13:10:34.378Z,22.59
2018-07-30T13:11:34.348Z,22.67
2018-07-30T13:12:34.008Z,22.56
2018-07-30T13:13:34.381Z,22.64
2018-07-30T13:14:34.322Z,22.64
2018-07-30T13:15:34.010Z,22.64
2018-07-30T13:16:34.002Z,22.69
2018-07-30T13:17:33.992Z,22.68
2018-07-30T13:18:34.321Z,22.60
2018-07-30T13:19:34.301Z,22.69
2018-07-30T13:20:33.953Z,22.67
2018-07-30T13:21:34.313Z,22.64
2018-07-30T13:22:34.281Z,22.69
2018-07-30T13:23:33.954Z,22.65
2018-07-30T13:24:34.269Z,22.59
2018-07-30T13:25:34.280Z,22.65
2018-07-30T13:26:34.316Z,22.68
2018-07-30T13:27:34.248Z,22.69
2018-07-30T13:28:34.238Z,22.68
2018-07-30T13:29:33.920Z,22.64
2018-07-30T13:30:34.224Z,22.69
2018-07-30T13:31:34.237Z,22.68
2018-07-30T13:32:34.224Z,22.64
2018-07-30T13:33:33.900Z,22.68
2018-07-30T13:34:33.879Z,22.67
2018-07-30T13:35:34.217Z,22.67
2018-07-30T13:36:33.872Z,22.62
2018-07-30T13:37:34.201Z,22.67
2018-07-30T13:38:33.843Z,22.68
2018-07-30T13:39:34.189Z,22.67
2018-07-30T13:40:33.847Z,22.67
2018-07-30T13:41:34.155Z,22.57
2018-07-30T13:42:33.832Z,22.64
2018-07-30T13:43:33.826Z,22.69
2018-07-30T13:44:34.178Z,22.71
2018-07-30T13:45:34.128Z,22.67
2018-07-30T13:46:34.123Z,22.59
2018-07-30T13:47:34.138Z,22.60
2018-07-30T13:48:34.109Z,22.62
2018-07-30T13:49:33.787Z,22.60
2018-07-30T13:50:34.101Z,22.60
2018-07-30T13:51:33.779Z,22.57
2018-07-30T13:52:34.085Z,22.65
2018-07-30T13:53:33.754Z,22.65
2018-07-30T13:54:34.116Z,22.59
2018-07-30T13:55:34.085Z,22.60
2018-07-30T13:56:34.059Z,22.62
2018-07-30T13:57:33.718Z,22.62
2018-07-30T13:58:33.720Z,22.60
2018-07-30T13:59:34.040Z,22.62
2018-07-30T14:00:34.051Z,22.56
2018-07-30T14:01:34.042Z,22.57
2018-07-30T14:02:33.681Z,22.57
2018-07-30T14:03:33.688Z,22.62
2018-07-30T14:04:33.695Z,22.60